createdAt,value
2023-05-01T00:02:25.707Z,13.52
2023-05-01T00:04:53.755Z,13.49
2023-05-01T00:07:22.254Z,13.48
2023-05-01T00:09:50.351Z,13.45
2023-05-01T00:12:18.634Z,13.43
2023-05-01T00:14:46.584Z,13.42
2023-05-01T00:17:14.605Z,13.38
2023-05-01T00:19:42.740Z,13.34
2023-05-01T00:22:10.690Z,13.29
2023-05-01T00:24:38.738Z,13.25
2023-05-01T00:27:07.020Z,13.19
2023-05-01T00:29:34.911Z,13.19
2023-05-01T00:32:02.843Z,13.15
2023-05-01T00:34:31.508Z,13.12
2023-05-01T00:37:00.141Z,13.09
2023-05-01T00:39:28.073Z,13.03
2023-05-01T00:41:57.107Z,12.97
2023-05-01T00:44:25.124Z,12.97
2023-05-01T00:46:53.065Z,12.94
2023-05-01T00:49:22.077Z,12.92
2023-05-01T00:51:54.292Z,12.90
2023-05-01T00:54:24.445Z,12.88
2023-05-01T00:56:53.789Z,12.83
2023-05-01T00:59:22.256Z,12.80
2023-05-01T01:01:50.326Z,12.70
2023-05-01T01:04:18.300Z,12.67
2023-05-01T01:07:00.047Z,12.64
2023-05-01T01:09:37.324Z,12.62
2023-05-01T01:12:21.872Z,12.59
2023-05-01T01:14:59.617Z,12.55
2023-05-01T01:17:43.611Z,12.50
2023-05-01T01:20:20.220Z,12.40
2023-05-01T01:23:00.247Z,12.30
2023-05-01T01:25:56.045Z,12.23
2023-05-01T01:28:54.684Z,12.13
2023-05-01T01:31:55.750Z,11.97
2023-05-01T01:34:36.983Z,11.90
2023-05-01T01:37:25.795Z,11.86
2023-05-01T01:40:05.456Z,11.85
2023-05-01T01:42:39.962Z,11.83
2023-05-01T01:45:20.638Z,11.80
2023-05-01T01:47:49.511Z,11.80
2023-05-01T01:50:19.971Z,11.78
2023-05-01T01:52:51.139Z,11.76
2023-05-01T01:55:22.980Z,11.75
2023-05-01T01:57:52.884Z,11.71
2023-05-01T02:00:21.963Z,11.70
2023-05-01T02:02:50.734Z,11.68
2023-05-01T02:05:20.871Z,11.66
2023-05-01T02:07:51.423Z,11.66
2023-05-01T02:10:21.191Z,11.63
2023-05-01T02:12:52.375Z,11.59
2023-05-01T02:15:21.988Z,11.58
2023-05-01T02:17:52.794Z,11.55
2023-05-01T02:20:22.599Z,11.54
2023-05-01T02:22:54.542Z,11.54
2023-05-01T02:25:22.580Z,11.53
2023-05-01T02:28:08.863Z,11.52
2023-05-01T02:30:37.277Z,11.47
2023-05-01T02:33:05.581Z,11.46
2023-05-01T02:35:33.424Z,11.43
2023-05-01T02:38:01.357Z,11.40
2023-05-01T02:40:29.979Z,11.38
2023-05-01T02:42:59.142Z,11.37
2023-05-01T02:45:28.590Z,11.31
2023-05-01T02:48:01.163Z,11.29
2023-05-01T02:50:29.900Z,11.28
2023-05-01T02:52:58.105Z,11.27
2023-05-01T02:55:26.561Z,11.26
2023-05-01T02:57:54.500Z,11.24
2023-05-01T03:00:22.549Z,11.22
2023-05-01T03:02:50.550Z,11.22
2023-05-01T03:05:18.565Z,11.21
2023-05-01T03:07:46.880Z,11.19
2023-05-01T03:10:14.944Z,11.17
2023-05-01T03:12:43.231Z,11.14
2023-05-01T03:15:13.385Z,11.09
2023-05-01T03:17:41.325Z,11.05
2023-05-01T03:20:10.875Z,11.06
2023-05-01T03:22:38.865Z,11.02
2023-05-01T03:25:07.185Z,11.01
2023-05-01T03:27:35.133Z,11.01
2023-05-01T03:30:03.052Z,11.03
2023-05-01T03:32:31.152Z,11.01
2023-05-01T03:34:59.048Z,11.02
2023-05-01T03:37:27.412Z,11.02
2023-05-01T03:39:55.673Z,11.01
2023-05-01T03:42:23.834Z,10.98
2023-05-01T03:44:51.866Z,10.99
2023-05-01T03:47:20.692Z,10.94
2023-05-01T03:49:48.997Z,10.87
2023-05-01T03:52:17.795Z,10.82
2023-05-01T03:54:46.030Z,10.78
2023-05-01T03:57:13.920Z,10.78
2023-05-01T03:59:41.899Z,10.71
2023-05-01T04:02:09.932Z,10.69
2023-05-01T04:04:37.975Z,10.68
2023-05-01T04:07:06.927Z,10.67
2023-05-01T04:09:34.841Z,10.66
2023-05-01T04:12:04.019Z,10.62
2023-05-01T04:14:32.346Z,10.56
2023-05-01T04:17:00.749Z,10.54
2023-05-01T04:19:29.306Z,10.49
2023-05-01T04:21:57.183Z,10.47
2023-05-01T04:24:25.143Z,10.45
2023-05-01T04:26:53.124Z,10.46
2023-05-01T04:29:21.099Z,10.43
2023-05-01T04:31:49.090Z,10.39
2023-05-01T04:34:17.540Z,10.37
2023-05-01T04:36:45.710Z,10.34
2023-05-01T04:39:13.670Z,10.33
2023-05-01T04:41:41.760Z,10.31
2023-05-01T04:44:09.650Z,10.31
2023-05-01T04:46:37.669Z,10.32
2023-05-01T04:49:05.622Z,10.30
2023-05-01T04:51:33.594Z,10.27
2023-05-01T04:54:01.478Z,10.30
2023-05-01T04:56:29.417Z,10.32
2023-05-01T04:58:57.487Z,10.32
2023-05-01T05:01:25.605Z,10.31
2023-05-01T05:03:53.707Z,10.34
2023-05-01T05:06:22.324Z,10.34
2023-05-01T05:08:53.301Z,10.33
2023-05-01T05:11:21.336Z,10.26
2023-05-01T05:13:49.355Z,10.29
2023-05-01T05:16:17.756Z,10.30
2023-05-01T05:18:45.606Z,10.30
2023-05-01T05:21:13.465Z,10.30
2023-05-01T05:23:42.235Z,10.33
2023-05-01T05:26:10.137Z,10.37
2023-05-01T05:28:37.956Z,10.37
2023-05-01T05:31:05.956Z,10.37
2023-05-01T05:33:34.032Z,10.38
2023-05-01T05:36:01.997Z,10.40
2023-05-01T05:38:29.861Z,10.41
2023-05-01T05:40:57.732Z,10.40
2023-05-01T05:43:27.347Z,10.43
2023-05-01T05:46:00.303Z,10.46
2023-05-01T05:48:29.296Z,10.46
2023-05-01T05:50:57.972Z,10.47
2023-05-01T05:53:26.969Z,10.51
2023-05-01T05:55:54.882Z,10.52
2023-05-01T05:58:23.836Z,10.53
2023-05-01T06:00:52.022Z,10.54
2023-05-01T06:03:20.686Z,10.56
2023-05-01T06:05:49.664Z,10.58
2023-05-01T06:08:17.829Z,10.60
2023-05-01T06:10:45.836Z,10.63
2023-05-01T06:13:15.107Z,10.65
2023-05-01T06:15:43.285Z,10.66
2023-05-01T06:18:11.276Z,10.72
2023-05-01T06:20:40.196Z,10.79
2023-05-01T06:23:09.851Z,10.84
2023-05-01T06:25:38.745Z,10.90
2023-05-01T06:28:06.905Z,10.93
2023-05-01T06:30:34.796Z,10.94
2023-05-01T06:33:02.854Z,10.95
2023-05-01T06:35:30.790Z,11.00
2023-05-01T06:37:58.812Z,11.01
2023-05-01T06:40:26.723Z,11.06
2023-05-01T06:42:54.662Z,11.03
2023-05-01T06:45:22.777Z,11.06
2023-05-01T06:47:50.852Z,11.03
2023-05-01T06:50:19.004Z,11.03
2023-05-01T06:52:46.937Z,11.04
2023-05-01T06:55:14.891Z,11.07
2023-05-01T06:57:43.010Z,11.10
2023-05-01T07:00:12.217Z,11.11
2023-05-01T07:02:42.098Z,11.14
2023-05-01T07:05:10.497Z,11.17
2023-05-01T07:07:42.232Z,11.17
2023-05-01T07:10:15.427Z,11.19
2023-05-01T07:12:43.321Z,11.25
2023-05-01T07:15:11.511Z,11.28
2023-05-01T07:17:39.548Z,11.31
2023-05-01T07:20:08.174Z,11.37
2023-05-01T07:22:36.132Z,11.41
2023-05-01T07:25:04.851Z,11.43
2023-05-01T07:27:32.779Z,11.44
2023-05-01T07:30:02.024Z,11.45
2023-05-01T07:32:29.983Z,11.45
2023-05-01T07:34:57.961Z,11.47
2023-05-01T07:37:28.304Z,11.50
2023-05-01T07:39:56.323Z,11.49
2023-05-01T07:42:24.812Z,11.51
2023-05-01T07:44:53.133Z,11.48
2023-05-01T07:47:21.308Z,11.50
2023-05-01T07:49:49.306Z,11.56
2023-05-01T07:52:17.277Z,11.58
2023-05-01T07:54:45.227Z,11.64
2023-05-01T07:57:13.263Z,11.69
2023-05-01T07:59:41.262Z,11.75
2023-05-01T08:02:09.266Z,11.79
2023-05-01T08:04:37.320Z,11.82
2023-05-01T08:07:05.365Z,11.90
2023-05-01T08:09:33.343Z,11.96
2023-05-01T08:12:01.852Z,11.95
2023-05-01T08:14:29.898Z,11.93
2023-05-01T08:16:57.821Z,11.95
2023-05-01T08:19:26.028Z,12.03
2023-05-01T08:21:54.472Z,12.09
2023-05-01T08:24:22.485Z,12.18
2023-05-01T08:26:50.411Z,12.20
2023-05-01T08:29:18.323Z,12.18
2023-05-01T08:31:46.796Z,12.14
2023-05-01T08:34:14.807Z,12.13
2023-05-01T08:36:42.852Z,12.12
2023-05-01T08:39:10.809Z,12.12
2023-05-01T08:41:39.716Z,12.12
2023-05-01T08:44:10.468Z,12.13
2023-05-01T08:46:46.011Z,12.06
2023-05-01T08:49:17.464Z,12.11
2023-05-01T08:51:53.959Z,12.18
2023-05-01T08:54:22.554Z,12.15
2023-05-01T08:56:52.887Z,12.16
2023-05-01T08:59:22.851Z,12.16
2023-05-01T09:01:52.580Z,12.11
2023-05-01T09:04:21.052Z,12.12
2023-05-01T09:06:49.001Z,12.12
2023-05-01T09:09:17.655Z,12.12
2023-05-01T09:11:46.572Z,12.14
2023-05-01T09:14:14.474Z,12.21
2023-05-01T09:16:42.473Z,12.26
2023-05-01T09:19:11.111Z,12.26
2023-05-01T09:21:39.423Z,12.23
2023-05-01T09:24:07.430Z,12.22
2023-05-01T09:26:38.283Z,12.27
2023-05-01T09:29:07.471Z,12.31
2023-05-01T09:31:36.262Z,12.39
2023-05-01T09:34:06.289Z,12.42
2023-05-01T09:36:35.767Z,12.47
2023-05-01T09:39:04.163Z,12.51
2023-05-01T09:41:35.312Z,12.51
2023-05-01T09:44:03.434Z,12.51
2023-05-01T09:46:43.983Z,12.50
2023-05-01T09:49:11.920Z,12.41
2023-05-01T09:51:39.761Z,12.44
2023-05-01T09:54:19.929Z,12.48
2023-05-01T09:56:51.226Z,12.53
2023-05-01T09:59:21.450Z,12.60
2023-05-01T10:01:51.408Z,12.69
2023-05-01T10:04:19.553Z,12.77
2023-05-01T10:06:47.798Z,12.87
2023-05-01T10:09:28.573Z,12.94
2023-05-01T10:11:58.740Z,13.04
2023-05-01T10:14:28.184Z,13.11
2023-05-01T10:16:57.706Z,13.19
2023-05-01T10:19:25.849Z,13.26
2023-05-01T10:21:54.729Z,13.26
2023-05-01T10:24:22.789Z,13.31
2023-05-01T10:26:52.287Z,13.39
2023-05-01T10:29:24.731Z,13.53
2023-05-01T10:31:52.980Z,13.63
2023-05-01T10:34:26.245Z,13.74
2023-05-01T10:37:20.692Z,13.86
2023-05-01T10:39:48.600Z,14.01
2023-05-01T10:42:16.614Z,14.04
2023-05-01T10:44:45.272Z,14.05
2023-05-01T10:47:36.185Z,14.05
2023-05-01T10:50:11.958Z,14.00
2023-05-01T10:53:13.935Z,13.95
2023-05-01T10:55:49.243Z,14.00
2023-05-01T10:58:38.895Z,14.12
2023-05-01T11:01:30.352Z,14.13
2023-05-01T11:04:00.206Z,14.16
2023-05-01T11:06:28.474Z,14.18
2023-05-01T11:08:57.030Z,14.25
2023-05-01T11:11:28.205Z,14.26
2023-05-01T11:14:09.641Z,14.35
2023-05-01T11:16:40.828Z,14.43
2023-05-01T11:19:22.589Z,14.47
2023-05-01T11:21:51.929Z,14.44
2023-05-01T11:24:21.184Z,14.40
2023-05-01T11:26:50.032Z,14.39
2023-05-01T11:29:18.683Z,14.28
2023-05-01T11:31:49.812Z,14.17
2023-05-01T11:34:18.471Z,14.12
2023-05-01T11:36:51.283Z,14.07
2023-05-01T11:39:20.193Z,13.92
2023-05-01T11:41:48.636Z,13.81
2023-05-01T11:44:18.697Z,13.68
2023-05-01T11:46:46.867Z,13.63
2023-05-01T11:49:14.706Z,13.54
2023-05-01T11:51:42.635Z,13.51
2023-05-01T11:54:13.774Z,13.52
2023-05-01T11:56:44.069Z,13.50
2023-05-01T11:59:18.378Z,13.50
2023-05-01T12:01:48.015Z,13.51
2023-05-01T12:04:29.738Z,13.51
2023-05-01T12:06:59.822Z,13.52
2023-05-01T12:09:28.805Z,13.54
2023-05-01T12:11:57.214Z,13.50
2023-05-01T12:14:25.748Z,13.51
2023-05-01T12:16:53.815Z,13.53
2023-05-01T12:19:24.086Z,13.51
2023-05-01T12:22:07.496Z,13.59
2023-05-01T12:24:35.629Z,13.62
2023-05-01T12:27:04.897Z,13.72
2023-05-01T12:29:43.175Z,13.81
2023-05-01T12:32:11.743Z,13.93
2023-05-01T12:34:39.864Z,14.07
2023-05-01T12:37:07.895Z,14.15
2023-05-01T12:39:46.251Z,14.22
2023-05-01T12:42:15.948Z,14.29
2023-05-01T12:44:45.475Z,14.44
2023-05-01T12:47:14.310Z,14.52
2023-05-01T12:49:42.912Z,14.64
2023-05-01T12:52:11.017Z,14.71
2023-05-01T12:54:41.317Z,14.78
2023-05-01T12:57:13.272Z,14.78
2023-05-01T12:59:42.981Z,14.80
2023-05-01T13:02:18.263Z,14.77
2023-05-01T13:04:48.419Z,14.75
2023-05-01T13:07:20.683Z,14.55
2023-05-01T13:10:00.151Z,13.99
2023-05-01T13:12:29.746Z,13.57
2023-05-01T13:14:58.434Z,13.31
2023-05-01T13:17:27.756Z,13.12
2023-05-01T13:19:57.207Z,12.89
2023-05-01T13:22:36.262Z,12.74
2023-05-01T13:25:24.753Z,12.61
2023-05-01T13:27:53.923Z,12.46
2023-05-01T13:30:31.920Z,12.30
2023-05-01T13:32:59.958Z,12.21
2023-05-01T13:35:28.739Z,12.09
2023-05-01T13:37:56.810Z,12.04
2023-05-01T13:40:27.390Z,12.01
2023-05-01T13:42:55.404Z,12.00
2023-05-01T13:45:23.568Z,11.99
2023-05-01T13:47:53.193Z,11.98
2023-05-01T13:50:21.605Z,12.01
2023-05-01T13:52:49.776Z,12.05
2023-05-01T13:55:19.034Z,12.12
2023-05-01T13:57:46.963Z,12.20
2023-05-01T14:00:19.408Z,12.27
2023-05-01T14:02:50.117Z,12.36
2023-05-01T14:05:24.661Z,12.44
2023-05-01T14:07:56.837Z,12.52
2023-05-01T14:10:27.679Z,12.61
2023-05-01T14:13:02.311Z,12.71
2023-05-01T14:15:30.915Z,12.82
2023-05-01T14:18:00.204Z,12.89
2023-05-01T14:20:28.460Z,12.96
2023-05-01T14:22:56.417Z,13.03
2023-05-01T14:25:32.626Z,13.12
2023-05-01T14:28:02.583Z,13.20
2023-05-01T14:30:35.829Z,13.27
2023-05-01T14:33:07.743Z,13.34
2023-05-01T14:35:36.771Z,13.43
2023-05-01T14:38:39.928Z,13.49
2023-05-01T14:41:10.007Z,13.55
2023-05-01T14:43:42.796Z,13.68
2023-05-01T14:46:13.963Z,13.78
2023-05-01T14:48:43.183Z,13.89
2023-05-01T14:51:14.172Z,14.00
2023-05-01T14:53:45.198Z,14.12
2023-05-01T14:56:13.902Z,14.21
2023-05-01T14:58:42.908Z,14.26
2023-05-01T15:01:11.066Z,14.34
2023-05-01T15:03:42.040Z,14.37
2023-05-01T15:06:10.296Z,14.40
2023-05-01T15:08:39.472Z,14.42
2023-05-01T15:11:07.530Z,14.44
2023-05-01T15:13:35.432Z,14.44
2023-05-01T15:16:03.989Z,14.38
2023-05-01T15:18:32.004Z,14.35
2023-05-01T15:21:00.068Z,14.16
2023-05-01T15:23:29.160Z,13.82
2023-05-01T15:25:57.039Z,13.46
2023-05-01T15:28:26.420Z,13.18
2023-05-01T15:30:54.573Z,12.92
2023-05-01T15:33:23.709Z,12.57
2023-05-01T15:35:54.029Z,12.31
2023-05-01T15:38:22.961Z,12.16
2023-05-01T15:40:51.330Z,11.96
2023-05-01T15:43:19.226Z,11.73
2023-05-01T15:45:47.269Z,11.52
2023-05-01T15:48:15.381Z,11.37
2023-05-01T15:50:43.371Z,11.31
2023-05-01T15:53:11.336Z,11.26
2023-05-01T15:55:39.481Z,11.25
2023-05-01T15:58:07.511Z,11.23
2023-05-01T16:00:37.277Z,11.26
2023-05-01T16:03:05.780Z,11.30
2023-05-01T16:05:33.918Z,11.38
2023-05-01T16:08:02.882Z,11.46
2023-05-01T16:10:30.934Z,11.50
2023-05-01T16:12:59.186Z,11.52
2023-05-01T16:15:27.055Z,11.53
2023-05-01T16:17:56.335Z,11.54
2023-05-01T16:20:25.047Z,11.51
2023-05-01T16:22:53.315Z,11.53
2023-05-01T16:25:21.365Z,11.54
2023-05-01T16:27:49.368Z,11.52
2023-05-01T16:30:17.364Z,11.54
2023-05-01T16:32:46.216Z,11.55
2023-05-01T16:35:19.151Z,11.56
2023-05-01T16:37:47.234Z,11.56
2023-05-01T16:40:19.415Z,11.57
2023-05-01T16:42:53.127Z,11.61
2023-05-01T16:45:21.748Z,11.61
2023-05-01T16:47:49.816Z,11.63
2023-05-01T16:50:18.336Z,11.64
2023-05-01T16:52:46.322Z,11.65
2023-05-01T16:55:14.458Z,11.66
2023-05-01T16:57:44.261Z,11.63
2023-05-01T17:00:13.047Z,11.60
2023-05-01T17:02:41.049Z,11.56
2023-05-01T17:05:09.592Z,11.44
2023-05-01T17:07:37.605Z,11.36
2023-05-01T17:10:05.969Z,11.33
2023-05-01T17:12:33.906Z,11.30
2023-05-01T17:15:01.919Z,11.27
2023-05-01T17:17:29.821Z,11.25
2023-05-01T17:19:58.049Z,11.23
2023-05-01T17:22:27.862Z,11.23
2023-05-01T17:24:57.615Z,11.24
2023-05-01T17:27:25.619Z,11.23
2023-05-01T17:29:53.542Z,11.19
2023-05-01T17:32:35.872Z,11.17
2023-05-01T17:35:05.946Z,11.15
2023-05-01T17:37:34.420Z,11.12
2023-05-01T17:40:03.076Z,11.06
2023-05-01T17:42:31.200Z,11.02
2023-05-01T17:44:59.066Z,11.01
2023-05-01T17:47:27.424Z,10.97
2023-05-01T17:49:55.636Z,11.02
2023-05-01T17:52:23.507Z,10.99
2023-05-01T17:54:51.562Z,10.95
2023-05-01T17:57:19.508Z,10.94
2023-05-01T17:59:47.996Z,10.91
2023-05-01T18:02:15.995Z,10.89
2023-05-01T18:04:43.973Z,10.87
2023-05-01T18:07:11.984Z,10.86
2023-05-01T18:09:39.903Z,10.83
2023-05-01T18:12:07.840Z,10.83
2023-05-01T18:14:35.814Z,10.83
2023-05-01T18:17:03.951Z,10.84
2023-05-01T18:19:32.085Z,10.83
2023-05-01T18:22:00.706Z,10.82
2023-05-01T18:24:28.630Z,10.81
2023-05-01T18:26:56.533Z,10.81
2023-05-01T18:29:24.566Z,10.78
2023-05-01T18:31:52.476Z,10.80
2023-05-01T18:34:20.846Z,10.75
2023-05-01T18:36:49.890Z,10.71
2023-05-01T18:39:17.788Z,10.70
2023-05-01T18:41:45.788Z,10.71
2023-05-01T18:44:13.720Z,10.67
2023-05-01T18:46:42.624Z,10.63
2023-05-01T18:49:10.529Z,10.56
2023-05-01T18:51:38.653Z,10.47
2023-05-01T18:54:08.420Z,10.45
2023-05-01T18:56:36.412Z,10.40
2023-05-01T18:59:04.371Z,10.31
2023-05-01T19:01:32.745Z,10.25
2023-05-01T19:04:01.319Z,10.19
2023-05-01T19:06:29.335Z,10.16
2023-05-01T19:08:57.408Z,10.18
2023-05-01T19:11:27.570Z,10.17
2023-05-01T19:13:55.460Z,10.16
2023-05-01T19:16:23.582Z,10.15
2023-05-01T19:18:51.423Z,10.17
2023-05-01T19:21:19.751Z,10.16
2023-05-01T19:23:48.704Z,10.16
2023-05-01T19:26:16.799Z,10.18
2023-05-01T19:28:44.754Z,10.18
2023-05-01T19:31:14.445Z,10.18
2023-05-01T19:33:42.713Z,10.17
2023-05-01T19:36:10.664Z,10.19
2023-05-01T19:38:38.613Z,10.19
2023-05-01T19:41:06.672Z,10.18
2023-05-01T19:43:34.564Z,10.18
2023-05-01T19:46:02.497Z,10.17
2023-05-01T19:48:30.649Z,10.18
2023-05-01T19:50:58.609Z,10.18
2023-05-01T19:53:26.643Z,10.17
2023-05-01T19:55:54.864Z,10.17
2023-05-01T19:58:23.079Z,10.13
2023-05-01T20:00:51.180Z,10.10
2023-05-01T20:03:19.302Z,10.04
2023-05-01T20:05:47.213Z,10.04
2023-05-01T20:08:15.150Z,10.00
2023-05-01T20:10:43.100Z,9.97
2023-05-01T20:13:11.985Z,9.94
2023-05-01T20:15:41.025Z,9.90
2023-05-01T20:18:09.466Z,9.88
2023-05-01T20:20:37.404Z,9.86
2023-05-01T20:23:15.798Z,9.85
2023-05-01T20:25:44.098Z,9.84
2023-05-01T20:28:14.272Z,9.82
2023-05-01T20:30:44.938Z,9.80
2023-05-01T20:33:13.466Z,9.79
2023-05-01T20:35:41.670Z,9.78
2023-05-01T20:38:09.695Z,9.76
2023-05-01T20:40:41.348Z,9.75
2023-05-01T20:43:09.341Z,9.76
2023-05-01T20:45:37.376Z,9.73
2023-05-01T20:48:05.522Z,9.73
2023-05-01T20:50:33.611Z,9.73
2023-05-01T20:53:01.643Z,9.73
2023-05-01T20:55:29.796Z,9.74
2023-05-01T20:57:57.797Z,9.76
2023-05-01T21:00:25.789Z,9.77
2023-05-01T21:02:54.173Z,9.79
2023-05-01T21:05:22.278Z,9.83
2023-05-01T21:07:50.225Z,9.82
2023-05-01T21:10:18.180Z,9.85
2023-05-01T21:12:46.167Z,9.86
2023-05-01T21:15:14.121Z,9.86
2023-05-01T21:17:42.395Z,9.90
2023-05-01T21:20:17.887Z,9.93
2023-05-01T21:22:46.989Z,9.94
2023-05-01T21:25:17.638Z,9.95
2023-05-01T21:27:45.460Z,9.97
2023-05-01T21:30:17.284Z,9.95
2023-05-01T21:32:45.444Z,9.96
2023-05-01T21:35:17.314Z,9.95
2023-05-01T21:37:46.622Z,9.95
2023-05-01T21:40:15.776Z,9.93
2023-05-01T21:42:43.812Z,9.94
2023-05-01T21:45:14.426Z,9.90
2023-05-01T21:47:47.653Z,9.92
2023-05-01T21:50:17.752Z,9.92
2023-05-01T21:52:47.591Z,9.94
2023-05-01T21:55:27.003Z,9.96
2023-05-01T21:57:55.022Z,9.98
2023-05-01T22:00:23.233Z,9.98
2023-05-01T22:02:52.326Z,10.01
2023-05-01T22:05:23.604Z,10.05
2023-05-01T22:07:55.356Z,10.07
2023-05-01T22:10:23.330Z,10.10
2023-05-01T22:12:51.591Z,10.13
2023-05-01T22:15:19.735Z,10.10
2023-05-01T22:17:47.674Z,10.06
2023-05-01T22:20:15.737Z,10.08
2023-05-01T22:22:44.419Z,10.06
2023-05-01T22:25:13.486Z,10.03
2023-05-01T22:27:42.115Z,9.97
2023-05-01T22:30:10.460Z,9.97
2023-05-01T22:32:38.436Z,9.93
2023-05-01T22:35:06.953Z,9.93
2023-05-01T22:37:34.824Z,9.89
2023-05-01T22:40:03.001Z,9.88
2023-05-01T22:42:31.118Z,9.84
2023-05-01T22:44:58.963Z,9.83
2023-05-01T22:47:26.980Z,9.78
2023-05-01T22:49:54.850Z,9.75
2023-05-01T22:52:22.716Z,9.71
2023-05-01T22:54:53.242Z,9.69
2023-05-01T22:57:21.119Z,9.68
2023-05-01T22:59:49.842Z,9.67
2023-05-01T23:02:18.959Z,9.64
2023-05-01T23:04:47.410Z,9.64
2023-05-01T23:07:15.535Z,9.63
2023-05-01T23:09:43.833Z,9.62
2023-05-01T23:12:29.628Z,9.64
2023-05-01T23:14:57.544Z,9.64
2023-05-01T23:17:28.467Z,9.69
2023-05-01T23:19:59.616Z,9.71
2023-05-01T23:22:27.777Z,9.75
2023-05-01T23:24:55.685Z,9.74
2023-05-01T23:27:23.925Z,9.76
2023-05-01T23:29:58.866Z,9.78
2023-05-01T23:32:32.119Z,9.78
2023-05-01T23:35:15.034Z,9.83
2023-05-01T23:37:43.285Z,9.83
2023-05-01T23:40:11.501Z,9.82
2023-05-01T23:42:40.730Z,9.80
2023-05-01T23:45:09.576Z,9.80
2023-05-01T23:47:38.682Z,9.84
2023-05-01T23:50:07.691Z,9.85
2023-05-01T23:52:35.708Z,9.86
2023-05-01T23:55:03.739Z,9.88
2023-05-01T23:57:31.628Z,9.88
2023-05-01T23:59:59.563Z,9.86
